Map

Track Data

SID SEASON NUMBER BASIN SUBBASIN NAME ISO_TIME NATURE LAT LON WMO_WIND WMO_PRES WMO_AGENCY TRACK_TYPE DIST2LAND LANDFALL IFLAG USA_AGENCY USA_ATCF_ID USA_LAT USA_LON USA_RECORD USA_STATUS USA_WIND USA_PRES USA_SSHS USA_R34_NE USA_R34_SE USA_R34_SW USA_R34_NW USA_R50_NE USA_R50_SE USA_R50_SW USA_R50_NW USA_R64_NE USA_R64_SE USA_R64_SW USA_R64_NW USA_POCI USA_ROCI USA_RMW USA_EYE TOKYO_LAT TOKYO_LON TOKYO_GRADE TOKYO_WIND TOKYO_PRES TOKYO_R50_DIR TOKYO_R50_LONG TOKYO_R50_SHORT TOKYO_R30_DIR TOKYO_R30_LONG TOKYO_R30_SHORT TOKYO_LAND CMA_LAT CMA_LON CMA_CAT CMA_WIND CMA_PRES HKO_LAT HKO_LON HKO_CAT HKO_WIND HKO_PRES NEWDELHI_LAT NEWDELHI_LON NEWDELHI_GRADE NEWDELHI_WIND NEWDELHI_PRES NEWDELHI_CI NEWDELHI_DP NEWDELHI_POCI REUNION_LAT REUNION_LON REUNION_TYPE REUNION_WIND REUNION_PRES REUNION_TNUM REUNION_CI REUNION_RMW REUNION_R34_NE REUNION_R34_SE REUNION_R34_SW REUNION_R34_NW REUNION_R50_NE REUNION_R50_SE REUNION_R50_SW REUNION_R50_NW REUNION_R64_NE REUNION_R64_SE REUNION_R64_SW REUNION_R64_NW BOM_LAT BOM_LON BOM_TYPE BOM_WIND BOM_PRES BOM_TNUM BOM_CI BOM_RMW BOM_R34_NE BOM_R34_SE BOM_R34_SW BOM_R34_NW BOM_R50_NE BOM_R50_SE BOM_R50_SW BOM_R50_NW BOM_R64_NE BOM_R64_SE BOM_R64_SW BOM_R64_NW BOM_ROCI BOM_POCI BOM_EYE BOM_POS_METHOD BOM_PRES_METHOD NADI_LAT NADI_LON NADI_CAT NADI_WIND NADI_PRES WELLINGTON_LAT WELLINGTON_LON WELLINGTON_WIND WELLINGTON_PRES DS824_LAT DS824_LON DS824_STAGE DS824_WIND DS824_PRES TD9636_LAT TD9636_LON TD9636_STAGE TD9636_WIND TD9636_PRES TD9635_LAT TD9635_LON TD9635_WIND TD9635_PRES TD9635_ROCI NEUMANN_LAT NEUMANN_LON NEUMANN_CLASS NEUMANN_WIND NEUMANN_PRES MLC_LAT MLC_LON MLC_CLASS MLC_WIND MLC_PRES USA_GUST BOM_GUST BOM_GUST_PER REUNION_GUST REUNION_GUST_PER USA_SEAHGT USA_SEARAD_NE USA_SEARAD_SE USA_SEARAD_SW USA_SEARAD_NW STORM_SPEED STORM_DIR
1900250N15122 1900 23 WP MM NOT_NAMED 1900-09-07 04:00:00 NR 15.1000 122.100 main 62 48 __________O___ -1 15.1000 122.100 3 5 290
1900250N15122 1900 23 WP MM NOT_NAMED 1900-09-07 06:00:00 NR 15.1556 121.940 main 48 31 __________P___ -1 15.1556 121.940 3 5 290
1900250N15122 1900 23 WP MM NOT_NAMED 1900-09-07 09:00:00 NR 15.2368 121.705 main 31 10 __________P___ -1 15.2368 121.705 3 5 289
1900250N15122 1900 23 WP MM NOT_NAMED 1900-09-07 12:00:00 NR 15.3126 121.478 main 10 0 __________P___ -1 15.3126 121.478 3 4 289
1900250N15122 1900 23 WP MM NOT_NAMED 1900-09-07 15:00:00 NR 15.3800 121.266 main 0 0 __________P___ -1 15.3800 121.266 3 4 288
1900250N15122 1900 23 WP MM NOT_NAMED 1900-09-07 16:00:00 NR 15.4000 121.200 main 0 0 __________O___ -1 15.4000 121.200 4 4 287
1900250N15122 1900 23 WP MM NOT_NAMED 1900-09-07 18:00:00 NR 15.4367 121.074 main 0 0 __________P___ -1 15.4367 121.074 4 4 287
1900250N15122 1900 23 WP MM NOT_NAMED 1900-09-07 21:00:00 NR 15.4916 120.891 main 0 0 __________P___ -1 15.4916 120.891 4 4 289
1900250N15122 1900 23 WP MM NOT_NAMED 1900-09-08 00:00:00 NR 15.5602 120.700 main 0 0 __________P___ -1 15.5602 120.700 4 4 293
1900250N15122 1900 23 WP MM NOT_NAMED 1900-09-08 03:00:00 NR 15.6581 120.482 main 0 0 __________P___ -1 15.6581 120.482 4 5 296
1900250N15122 1900 23 WP MM NOT_NAMED 1900-09-08 04:00:00 NR 15.7000 120.400 main 0 0 __________O___ -1 15.7000 120.400 4 6 298
1900250N15122 1900 23 WP MM NOT_NAMED 1900-09-08 06:00:00 NR 15.7996 120.209 main 0 0 __________P___ -1 15.7996 120.209 4 7 300
1900250N15122 1900 23 WP MM NOT_NAMED 1900-09-08 09:00:00 NR 15.9804 119.892 main 0 0 __________P___ -1 15.9804 119.892 4 7 302
1900250N15122 1900 23 WP MM NOT_NAMED 1900-09-08 12:00:00 NR 16.1905 119.553 main 21 30 __________P___ -1 16.1905 119.553 4 8 304
1900250N15122 1900 23 WP MM NOT_NAMED 1900-09-08 15:00:00 NR 16.4205 119.211 main 65 65 __________P___ -1 16.4205 119.211 4 8 306
1900250N15122 1900 23 WP MM NOT_NAMED 1900-09-08 16:00:00 NR 16.5000 119.100 main 77 77 __________O___ -1 16.5000 119.100 4 8 308
1900250N15122 1900 23 WP MM NOT_NAMED 1900-09-08 18:00:00 NR 16.6550 118.902 main 105 105 __________P___ -1 16.6550 118.902 4 7 311
1900250N15122 1900 23 WP MM NOT_NAMED 1900-09-08 21:00:00 NR 16.9003 118.611 main 144 144 __________P___ -1 16.9003 118.611 4 8 312
1900250N15122 1900 23 WP MM NOT_NAMED 1900-09-09 00:00:00 NR 17.1554 118.318 main 188 188 __________P___ -1 17.1554 118.318 4 8 312
1900250N15122 1900 23 WP MM NOT_NAMED 1900-09-09 03:00:00 NR 17.4141 118.009 main 227 227 __________P___ -1 17.4141 118.009 4 8 311
1900250N15122 1900 23 WP MM NOT_NAMED 1900-09-09 04:00:00 NR 17.5000 117.900 main 242 242 __________O___ -1 17.5000 117.900 4 8 308
1900250N15122 1900 23 WP MM NOT_NAMED 1900-09-09 06:00:00 NR 17.6667 117.664 main 272 281 __________P___ -1 17.6667 117.664 4 9 306
1900250N15122 1900 23 WP MM NOT_NAMED 1900-09-09 09:00:00 NR 17.9167 117.292 main 319 319 __________P___ -1 17.9167 117.292 4 9 305
1900250N15122 1900 23 WP MM NOT_NAMED 1900-09-09 12:00:00 NR 18.1667 116.908 main 366 366 __________P___ -1 18.1667 116.908 4 9 304
1900250N15122 1900 23 WP MM NOT_NAMED 1900-09-09 15:00:00 NR 18.4167 116.525 main 411 411 __________P___ -1 18.4167 116.525 4 9 305
1900250N15122 1900 23 WP MM NOT_NAMED 1900-09-09 16:00:00 NR 18.5000 116.400 main 424 424 __________O___ -1 18.5000 116.400 4 9 306
1900250N15122 1900 23 WP MM NOT_NAMED 1900-09-09 18:00:00 NR 18.6717 116.158 main 445 411 __________P___ -1 18.6717 116.158 4 9 307
1900250N15122 1900 23 WP MM NOT_NAMED 1900-09-09 21:00:00 NR 18.9296 115.802 main 411 368 __________P___ -1 18.9296 115.802 4 8 307
1900250N15122 1900 23 WP MM NOT_NAMED 1900-09-10 00:00:00 NR 19.1822 115.453 main 368 334 __________P___ -1 19.1822 115.453 4 8 307
1900250N15122 1900 23 WP MM NOT_NAMED 1900-09-10 03:00:00 NR 19.4233 115.112 main 334 321 __________P___ -1 19.4233 115.112 4 8 307
1900250N15122 1900 23 WP MM NOT_NAMED 1900-09-10 04:00:00 NR 19.5000 115.000 main 321 306 __________O___ -1 19.5000 115.000 4 8 305
1900250N15122 1900 23 WP MM NOT_NAMED 1900-09-10 06:00:00 NR 19.6472 114.775 main 306 266 __________P___ -1 19.6472 114.775 4 8 304
1900250N15122 1900 23 WP MM NOT_NAMED 1900-09-10 09:00:00 NR 19.8556 114.443 main 266 231 __________P___ -1 19.8556 114.443 4 7 303
1900250N15122 1900 23 WP MM NOT_NAMED 1900-09-10 12:00:00 NR 20.0519 114.120 main 231 207 __________P___ -1 20.0519 114.120 4 7 303
1900250N15122 1900 23 WP MM NOT_NAMED 1900-09-10 15:00:00 NR 20.2391 113.804 main 207 193 __________P___ -1 20.2391 113.804 4 7 302
1900250N15122 1900 23 WP MM NOT_NAMED 1900-09-10 16:00:00 NR 20.3000 113.700 main 193 175 __________O___ -1 20.3000 113.700 4 7 304
1900250N15122 1900 23 WP MM NOT_NAMED 1900-09-10 18:00:00 NR 20.4220 113.507 main 175 146 __________P___ -1 20.4220 113.507 4 6 304
1900250N15122 1900 23 WP MM NOT_NAMED 1900-09-10 21:00:00 NR 20.5989 113.224 main 146 116 __________P___ -1 20.5989 113.224 4 6 303
1900250N15122 1900 23 WP MM NOT_NAMED 1900-09-11 00:00:00 NR 20.7714 112.933 main 116 94 __________P___ -1 20.7714 112.933 4 7 301
1900250N15122 1900 23 WP MM NOT_NAMED 1900-09-11 03:00:00 NR 20.9427 112.615 main 94 80 __________P___ -1 20.9427 112.615 4 7 299
1900250N15122 1900 23 WP MM NOT_NAMED 1900-09-11 04:00:00 NR 21.0000 112.500 main 80 67 __________O___ -1 21.0000 112.500 4 8 298
1900250N15122 1900 23 WP MM NOT_NAMED 1900-09-11 06:00:00 NR 21.1219 112.250 main 67 30 __________P___ -1 21.1219 112.250 4 8 297
1900250N15122 1900 23 WP MM NOT_NAMED 1900-09-11 09:00:00 NR 21.3048 111.845 main 30 0 __________P___ -1 21.3048 111.845 4 9 295
1900250N15122 1900 23 WP MM NOT_NAMED 1900-09-11 12:00:00 NR 21.4823 111.410 main 0 0 __________P___ -1 21.4823 111.410 4 9 293
1900250N15122 1900 23 WP MM NOT_NAMED 1900-09-11 15:00:00 NR 21.6483 110.955 main 0 0 __________P___ -1 21.6483 110.955 4 9 291
1900250N15122 1900 23 WP MM NOT_NAMED 1900-09-11 16:00:00 NR 21.7000 110.800 main 0 0 __________O___ -1 21.7000 110.800 7 9 289
1900250N15122 1900 23 WP MM NOT_NAMED 1900-09-11 18:00:00 NR 21.7972 110.489 main 0 0 __________P___ -1 21.7972 110.489 7 9 288
1900250N15122 1900 23 WP MM NOT_NAMED 1900-09-11 21:00:00 NR 21.9297 110.016 main 0 0 __________P___ -1 21.9297 110.016 7 9 286
1900250N15122 1900 23 WP MM NOT_NAMED 1900-09-12 00:00:00 NR 22.0502 109.540 main 0 0 __________P___ -1 22.0502 109.540 7 9 285
1900250N15122 1900 23 WP MM NOT_NAMED 1900-09-12 03:00:00 NR 22.1632 109.060 main 0 0 __________P___ -1 22.1632 109.060 7 9 284
1900250N15122 1900 23 WP MM NOT_NAMED 1900-09-12 04:00:00 NR 22.2000 108.900 main 0 __________O___ -1 22.2000 108.900 7 9 284

Digital Typhoon Data and Search

About IBTrACS Database

This database is a web-friendly format of International Best Track Archive for Climate Stewardship (IBTrACS), a global best track data archive curated by NOAA dating back to 1842.

Updated: 2021-10-25